createdAt,value
2022-11-16T00:00:11.314Z,72
2022-11-16T00:01:29.060Z,72.3
2022-11-16T00:02:47.044Z,72.2
2022-11-16T00:04:03.952Z,72.3
2022-11-16T00:05:24.304Z,72.3
2022-11-16T00:06:37.905Z,72.3
2022-11-16T00:07:54.947Z,72.1
2022-11-16T00:09:11.922Z,72
2022-11-16T00:10:28.960Z,71.8
2022-11-16T00:11:45.952Z,71.7
2022-11-16T00:13:02.931Z,71.6
2022-11-16T00:14:19.974Z,71.6
2022-11-16T00:15:36.961Z,71.6
2022-11-16T00:16:54.052Z,71.6
2022-11-16T00:18:10.957Z,71.6
2022-11-16T00:19:27.966Z,71.6
2022-11-16T00:20:45.017Z,71.5
2022-11-16T00:22:02.016Z,71.4
2022-11-16T00:23:18.941Z,71.3
2022-11-16T00:24:36.086Z,71.8
2022-11-16T00:25:52.987Z,72.6
2022-11-16T00:27:09.986Z,73.3
2022-11-16T00:28:26.964Z,73.9
2022-11-16T00:29:44.027Z,74.5
2022-11-16T00:31:00.990Z,75.1
2022-11-16T00:32:18.008Z,75.2
2022-11-16T00:33:34.981Z,75
2022-11-16T00:34:52.007Z,74.7
2022-11-16T00:36:08.983Z,74.3
2022-11-16T00:37:25.982Z,74
2022-11-16T00:38:42.960Z,73.7
2022-11-16T00:40:00.036Z,73.5
2022-11-16T00:41:16.996Z,73.2
2022-11-16T00:42:33.999Z,73.2
2022-11-16T00:43:50.969Z,73.1
2022-11-16T00:45:07.997Z,72.8
2022-11-16T00:46:24.973Z,72.5
2022-11-16T00:47:42.000Z,72.3
2022-11-16T00:48:58.990Z,72.2
2022-11-16T00:50:15.995Z,72.1
2022-11-16T00:51:33.070Z,71.9
2022-11-16T00:52:50.000Z,71.9
2022-11-16T00:54:07.010Z,71.8
2022-11-16T00:55:23.991Z,71.8
2022-11-16T00:56:41.046Z,71.8
2022-11-16T00:57:59.129Z,71.7
2022-11-16T00:59:16.006Z,71.4
2022-11-16T01:00:33.003Z,71.3
2022-11-16T01:01:50.111Z,71.1
2022-11-16T01:03:07.071Z,71.3
2022-11-16T01:04:24.024Z,71.4
2022-11-16T01:05:41.107Z,71.5
2022-11-16T01:06:58.078Z,71.6
2022-11-16T01:08:15.030Z,71.6
2022-11-16T01:09:32.037Z,71.7
2022-11-16T01:10:49.071Z,71.8
2022-11-16T01:12:06.063Z,71.8
2022-11-16T01:13:23.048Z,72.3
2022-11-16T01:14:40.009Z,72.8
2022-11-16T01:15:57.278Z,73.7
2022-11-16T01:17:15.050Z,74.4
2022-11-16T01:18:32.477Z,74.9
2022-11-16T01:19:49.099Z,75.4
2022-11-16T01:21:06.034Z,75.9
2022-11-16T01:22:23.070Z,76.2
2022-11-16T01:23:40.047Z,76
2022-11-16T01:24:57.081Z,75.4
2022-11-16T01:26:14.122Z,75
2022-11-16T01:27:31.070Z,74.5
2022-11-16T01:28:48.071Z,74
2022-11-16T01:30:05.088Z,73.6
2022-11-16T01:31:22.058Z,73.2
2022-11-16T01:32:39.067Z,73
2022-11-16T01:33:56.046Z,72.9
2022-11-16T01:35:13.060Z,72.8
2022-11-16T01:36:30.077Z,72.7
2022-11-16T01:37:47.116Z,72.8
2022-11-16T01:39:04.074Z,72.8
2022-11-16T01:40:21.056Z,72.6
2022-11-16T01:41:38.165Z,72.8
2022-11-16T01:42:55.085Z,72.8
2022-11-16T01:44:12.085Z,73
2022-11-16T01:45:29.126Z,72.9
2022-11-16T01:46:46.122Z,72.8
2022-11-16T01:48:03.116Z,72.7
2022-11-16T01:49:20.084Z,72.3
2022-11-16T01:50:37.100Z,72.3
2022-11-16T01:51:54.061Z,72.2
2022-11-16T01:53:11.103Z,72.2
2022-11-16T01:54:28.070Z,72.2
2022-11-16T01:55:45.099Z,72
2022-11-16T01:57:02.188Z,72
2022-11-16T01:58:19.093Z,72
2022-11-16T01:59:36.120Z,72.1
2022-11-16T02:00:53.139Z,72.1
2022-11-16T02:02:10.327Z,72
2022-11-16T02:03:27.092Z,72.1
2022-11-16T02:04:43.937Z,72.4
2022-11-16T02:06:00.929Z,72.5
2022-11-16T02:07:18.013Z,72.6
2022-11-16T02:08:35.315Z,73.1
2022-11-16T02:09:51.754Z,73.8
2022-11-16T02:11:08.773Z,74.3
2022-11-16T02:12:25.804Z,74.9
2022-11-16T02:13:42.788Z,75.5
2022-11-16T02:14:59.817Z,76
2022-11-16T02:16:16.789Z,76.4
2022-11-16T02:17:33.821Z,76.8
2022-11-16T02:18:50.784Z,76.6
2022-11-16T02:20:07.788Z,76.1
2022-11-16T02:21:24.775Z,75.7
2022-11-16T02:22:41.805Z,75.6
2022-11-16T02:23:58.821Z,75.2
2022-11-16T02:25:15.797Z,74.7
2022-11-16T02:26:32.793Z,74.5
2022-11-16T02:27:49.834Z,74.2
2022-11-16T02:29:06.807Z,73.9
2022-11-16T02:30:23.802Z,73.6
2022-11-16T02:31:40.801Z,73.3
2022-11-16T02:32:57.783Z,73.4
2022-11-16T02:34:14.827Z,73.3
2022-11-16T02:35:31.800Z,73
2022-11-16T02:36:48.799Z,73
2022-11-16T02:38:05.806Z,73
2022-11-16T02:39:22.833Z,73.1
2022-11-16T02:40:39.827Z,73.4
2022-11-16T02:41:56.811Z,73.6
2022-11-16T02:43:13.817Z,73.6
2022-11-16T02:44:30.817Z,73.7
2022-11-16T02:45:47.842Z,73.8
2022-11-16T02:47:04.810Z,73.6
2022-11-16T02:48:21.859Z,73.6
2022-11-16T02:49:38.831Z,73.8
2022-11-16T02:50:55.876Z,73.7
2022-11-16T02:52:12.873Z,73.7
2022-11-16T02:53:29.832Z,73.8
2022-11-16T02:54:46.899Z,74
2022-11-16T02:56:03.830Z,74.3
2022-11-16T02:57:20.821Z,75
2022-11-16T02:58:37.821Z,75.6
2022-11-16T02:59:54.870Z,76.5
2022-11-16T03:01:11.930Z,77.3
2022-11-16T03:02:28.887Z,77.5
2022-11-16T03:03:45.846Z,77.7
2022-11-16T03:05:02.892Z,77.5
2022-11-16T03:06:19.855Z,77.1
2022-11-16T03:07:36.901Z,76.7
2022-11-16T03:08:53.859Z,76.3
2022-11-16T03:10:10.838Z,76.1
2022-11-16T03:11:27.842Z,75.8
2022-11-16T03:12:44.883Z,75.7
2022-11-16T03:14:01.891Z,75.4
2022-11-16T03:15:18.882Z,75.3
2022-11-16T03:16:35.870Z,75.5
2022-11-16T03:17:52.860Z,75.8
2022-11-16T03:19:09.878Z,75.7
2022-11-16T03:20:26.912Z,76.1
2022-11-16T03:21:43.936Z,76.3
2022-11-16T03:23:00.839Z,76.1
2022-11-16T03:24:17.874Z,75.9
2022-11-16T03:25:34.898Z,75.5
2022-11-16T03:26:51.890Z,75.3
2022-11-16T03:28:08.872Z,75.4
2022-11-16T03:29:25.961Z,75.5
2022-11-16T03:30:42.936Z,75.7
2022-11-16T03:31:59.901Z,75.5
2022-11-16T03:33:16.897Z,75.3
2022-11-16T03:34:33.890Z,75
2022-11-16T03:35:50.919Z,75.1
2022-11-16T03:37:07.903Z,75.2
2022-11-16T03:38:24.893Z,74.9
2022-11-16T03:39:41.912Z,74.8
2022-11-16T03:40:59.011Z,74.9
2022-11-16T03:42:15.902Z,74.9
2022-11-16T03:43:32.887Z,75
2022-11-16T03:44:49.890Z,74.9
2022-11-16T03:46:06.955Z,74.9
2022-11-16T03:47:23.921Z,75
2022-11-16T03:48:40.932Z,74.9
2022-11-16T03:49:57.914Z,75.4
2022-11-16T03:51:14.934Z,76.1
2022-11-16T03:52:31.911Z,76.7
2022-11-16T03:53:48.903Z,77.2
2022-11-16T03:55:05.947Z,77.7
2022-11-16T03:56:22.977Z,78.2
2022-11-16T03:57:39.923Z,78.1
2022-11-16T03:58:56.945Z,77.6
2022-11-16T04:00:13.946Z,77.1
2022-11-16T04:01:31.046Z,77
2022-11-16T04:02:47.949Z,76.7
2022-11-16T04:04:04.918Z,76.2
2022-11-16T04:05:21.918Z,75.9
2022-11-16T04:06:38.958Z,75.6
2022-11-16T04:07:55.952Z,75.4
2022-11-16T04:09:12.920Z,75.3
2022-11-16T04:10:29.958Z,75.2
2022-11-16T04:11:46.960Z,75.1
2022-11-16T04:13:03.935Z,75.3
2022-11-16T04:14:20.948Z,75.3
2022-11-16T04:15:37.977Z,75.2
2022-11-16T04:16:54.963Z,75.2
2022-11-16T04:18:12.043Z,75.3
2022-11-16T04:19:28.939Z,75.4
2022-11-16T04:20:46.589Z,75.5
2022-11-16T04:22:03.959Z,75.4
2022-11-16T04:23:20.947Z,75.2
2022-11-16T04:24:37.954Z,75
2022-11-16T04:25:55.002Z,74.8
2022-11-16T04:27:11.991Z,74.7
2022-11-16T04:28:28.957Z,74.5
2022-11-16T04:29:45.961Z,74.7
2022-11-16T04:31:02.998Z,74.9
2022-11-16T04:32:20.022Z,74.8
2022-11-16T04:33:36.975Z,75
2022-11-16T04:34:53.968Z,75.2
2022-11-16T04:36:10.943Z,75.2
2022-11-16T04:37:28.034Z,75.4
2022-11-16T04:38:44.962Z,75.8
2022-11-16T04:40:02.090Z,75.9
2022-11-16T04:41:18.992Z,75.8
2022-11-16T04:42:36.054Z,76.1
2022-11-16T04:43:52.983Z,77.1
2022-11-16T04:45:10.025Z,77.9
2022-11-16T04:46:27.011Z,78.5
2022-11-16T04:47:44.032Z,78.8
2022-11-16T04:49:01.085Z,79.3
2022-11-16T04:50:18.150Z,79.2
2022-11-16T04:51:34.992Z,79.1
2022-11-16T04:52:51.984Z,78.8
2022-11-16T04:54:09.043Z,78.5
2022-11-16T04:55:26.000Z,78.1
2022-11-16T04:56:43.003Z,77.7
2022-11-16T04:57:59.996Z,77.2
2022-11-16T04:59:16.990Z,76.9
2022-11-16T05:00:34.077Z,76.8
2022-11-16T05:01:51.022Z,76.6
2022-11-16T05:03:07.994Z,76.5
2022-11-16T05:04:25.053Z,76.6
2022-11-16T05:05:42.188Z,76.6
2022-11-16T05:06:59.070Z,76.4
2022-11-16T05:08:16.027Z,76.2
2022-11-16T05:09:33.046Z,76.2
2022-11-16T05:10:50.052Z,76.2
2022-11-16T05:12:08.041Z,76
2022-11-16T05:13:25.022Z,76.1
2022-11-16T05:14:42.001Z,76.3
2022-11-16T05:15:59.063Z,76.6
2022-11-16T05:17:16.007Z,76.9
2022-11-16T05:18:33.381Z,77.1
2022-11-16T05:19:50.040Z,77.2
2022-11-16T05:21:07.050Z,77.3
2022-11-16T05:22:24.021Z,77.2
2022-11-16T05:23:41.070Z,77.1
2022-11-16T05:24:58.045Z,77
2022-11-16T05:26:15.157Z,77.1
2022-11-16T05:27:32.042Z,77
2022-11-16T05:28:49.032Z,76.8
2022-11-16T05:30:06.094Z,76.8
2022-11-16T05:31:23.057Z,77.3
2022-11-16T05:32:40.261Z,78
2022-11-16T05:33:57.031Z,78.6
2022-11-16T05:35:14.085Z,79.5
2022-11-16T05:36:31.118Z,80.2
2022-11-16T05:37:48.084Z,80.4
2022-11-16T05:39:05.046Z,80.9
2022-11-16T05:40:22.233Z,81.2
2022-11-16T05:41:39.062Z,81.5
2022-11-16T05:42:56.096Z,81.4
2022-11-16T05:44:13.050Z,80.9
2022-11-16T05:45:30.059Z,80.6
2022-11-16T05:46:47.048Z,80.2
2022-11-16T05:48:04.138Z,79.8
2022-11-16T05:49:21.077Z,79.6
2022-11-16T05:50:42.479Z,79.4
2022-11-16T05:51:55.093Z,79.1
2022-11-16T05:53:12.095Z,79
2022-11-16T05:54:29.136Z,78.7
2022-11-16T05:55:46.090Z,78.2
2022-11-16T05:57:03.066Z,78.1
2022-11-16T05:58:20.093Z,78.4
2022-11-16T05:59:37.155Z,78
2022-11-16T06:00:54.092Z,77.8
2022-11-16T06:02:11.209Z,77.5
2022-11-16T06:03:28.141Z,77.1
2022-11-16T06:04:45.164Z,76.8
2022-11-16T06:06:02.097Z,76.7
2022-11-16T06:07:19.157Z,76.5
2022-11-16T06:08:36.400Z,76.4
2022-11-16T06:09:53.129Z,76.5
2022-11-16T06:11:10.091Z,76.6
2022-11-16T06:12:27.088Z,76.7
2022-11-16T06:13:44.106Z,76.8
2022-11-16T06:15:01.204Z,76.9
2022-11-16T06:16:18.342Z,76.7
2022-11-16T06:17:35.090Z,76.7
2022-11-16T06:18:52.103Z,76.7
2022-11-16T06:20:09.169Z,76.6
2022-11-16T06:21:26.110Z,76.7
2022-11-16T06:22:43.107Z,76.8
2022-11-16T06:24:00.116Z,77.3
2022-11-16T06:25:17.495Z,77.6
2022-11-16T06:26:34.111Z,78.1
2022-11-16T06:27:51.101Z,78.7
2022-11-16T06:29:08.116Z,79.5
2022-11-16T06:30:25.336Z,79.7
2022-11-16T06:31:42.221Z,79.6
2022-11-16T06:32:59.157Z,79.5
2022-11-16T06:34:16.115Z,79.3
2022-11-16T06:35:33.165Z,79.2
2022-11-16T06:36:50.154Z,78.9
2022-11-16T06:38:07.148Z,79.1
2022-11-16T06:39:24.133Z,78.9
2022-11-16T06:40:41.171Z,78.7
2022-11-16T06:41:58.166Z,78.5
2022-11-16T06:43:15.243Z,78.4
2022-11-16T06:44:32.161Z,77.9
2022-11-16T06:45:49.130Z,77.6
2022-11-16T06:47:06.321Z,77.6
2022-11-16T06:48:23.230Z,77.4
2022-11-16T06:49:40.186Z,77.4
2022-11-16T06:50:57.146Z,77.4
2022-11-16T06:52:14.164Z,77.6
2022-11-16T06:53:31.165Z,77.7
2022-11-16T06:54:48.201Z,77.6
2022-11-16T06:56:05.218Z,77.9
2022-11-16T06:57:22.132Z,77.9
2022-11-16T06:58:41.670Z,78.2
2022-11-16T06:59:56.241Z,78.8
2022-11-16T07:01:13.203Z,79.2
2022-11-16T07:02:30.187Z,79.3
2022-11-16T07:03:47.195Z,79.3
2022-11-16T07:05:04.313Z,79.5
2022-11-16T07:06:21.196Z,79.3
2022-11-16T07:07:38.316Z,78.8
2022-11-16T07:08:55.174Z,78.4
2022-11-16T07:10:12.172Z,77.9
2022-11-16T07:11:29.245Z,77.7
2022-11-16T07:12:46.212Z,77.9
2022-11-16T07:14:03.321Z,78.2
2022-11-16T07:15:20.187Z,78.9
2022-11-16T07:16:37.283Z,79.3
2022-11-16T07:17:54.341Z,79.9
2022-11-16T07:19:11.176Z,80.4
2022-11-16T07:20:28.217Z,80.7
2022-11-16T07:21:45.219Z,80.6
2022-11-16T07:23:02.282Z,80.3
2022-11-16T07:24:19.190Z,79.9
2022-11-16T07:25:36.199Z,79.6
2022-11-16T07:26:53.295Z,79
2022-11-16T07:28:10.214Z,78.6
2022-11-16T07:29:27.231Z,78.3
2022-11-16T07:30:44.329Z,78
2022-11-16T07:32:01.265Z,77.6
2022-11-16T07:33:18.235Z,77.4
2022-11-16T07:34:35.291Z,77
2022-11-16T07:35:52.230Z,76.5
2022-11-16T07:37:09.227Z,76.1
2022-11-16T07:38:26.267Z,75.9
2022-11-16T07:39:43.269Z,75.5
2022-11-16T07:41:00.269Z,75.6
2022-11-16T07:42:17.229Z,75.7
2022-11-16T07:43:34.384Z,75.9
2022-11-16T07:44:51.243Z,76.3
2022-11-16T07:46:41.471Z,76.5
2022-11-16T07:47:25.243Z,76.8
2022-11-16T07:48:42.321Z,77.1
2022-11-16T07:49:59.263Z,77.2
2022-11-16T07:51:16.297Z,77.5
2022-11-16T07:52:33.264Z,78.2
2022-11-16T07:53:50.259Z,78.1
2022-11-16T07:55:07.269Z,77.8
2022-11-16T07:56:24.303Z,77.7
2022-11-16T07:57:41.215Z,77.3
2022-11-16T07:58:58.278Z,77
2022-11-16T08:00:15.273Z,76.8
2022-11-16T08:01:32.342Z,76.8
2022-11-16T08:02:49.355Z,77.1
2022-11-16T08:04:06.367Z,77.3
2022-11-16T08:05:23.293Z,78.1
2022-11-16T08:06:40.304Z,78.6
2022-11-16T08:07:57.509Z,79
2022-11-16T08:09:14.260Z,79.4
2022-11-16T08:10:31.400Z,79.4
2022-11-16T08:11:48.305Z,79.1
2022-11-16T08:13:05.784Z,78.5
2022-11-16T08:14:22.252Z,77.9
2022-11-16T08:15:39.294Z,77.3
2022-11-16T08:16:56.344Z,76.9
2022-11-16T08:18:13.291Z,76.6
2022-11-16T08:19:30.408Z,76.4
2022-11-16T08:20:47.318Z,76
2022-11-16T08:22:04.356Z,75.6
2022-11-16T08:23:21.282Z,75.4
2022-11-16T08:24:38.291Z,75.3
2022-11-16T08:25:55.294Z,75.2
2022-11-16T08:27:12.374Z,75.2
2022-11-16T08:28:29.304Z,75.1
2022-11-16T08:29:46.707Z,75.2
2022-11-16T08:31:03.503Z,75.2
2022-11-16T08:32:20.284Z,75.1
2022-11-16T08:33:37.303Z,74.9
2022-11-16T08:34:54.562Z,74.6
2022-11-16T08:36:14.138Z,74.5
2022-11-16T08:37:28.511Z,74.4
2022-11-16T08:38:45.336Z,74.3
2022-11-16T08:40:02.405Z,74.3
2022-11-16T08:41:19.315Z,74.5
2022-11-16T08:42:40.853Z,75
2022-11-16T08:43:53.542Z,75.2
2022-11-16T08:45:10.296Z,75.2
2022-11-16T08:46:27.350Z,75.4
2022-11-16T08:47:44.391Z,76
2022-11-16T08:49:01.302Z,76.4
2022-11-16T08:50:18.369Z,77.2
2022-11-16T08:51:35.313Z,78.2
2022-11-16T08:52:52.422Z,78.7
2022-11-16T08:54:09.355Z,79
2022-11-16T08:55:26.342Z,79.1
2022-11-16T08:56:43.341Z,78.9
2022-11-16T08:58:00.349Z,78.4
2022-11-16T08:59:17.443Z,77.9
2022-11-16T09:00:34.525Z,77.3
2022-11-16T09:01:51.525Z,77
2022-11-16T09:03:08.551Z,76.6
2022-11-16T09:04:25.459Z,76.5
2022-11-16T09:05:42.403Z,76.2
2022-11-16T09:06:59.416Z,76.1
2022-11-16T09:08:16.364Z,76
2022-11-16T09:09:33.455Z,76
2022-11-16T09:10:50.362Z,75.9
2022-11-16T09:12:07.464Z,75.7
2022-11-16T09:13:24.407Z,75.7
2022-11-16T09:14:41.413Z,75.3
2022-11-16T09:15:58.369Z,75
2022-11-16T09:17:18.873Z,74.9
2022-11-16T09:18:32.769Z,75
2022-11-16T09:19:49.384Z,74.8
2022-11-16T09:21:06.539Z,74.6
2022-11-16T09:22:23.355Z,74.7
2022-11-16T09:23:40.416Z,74.4
2022-11-16T09:24:57.382Z,74.3
2022-11-16T09:26:14.358Z,74.4
2022-11-16T09:27:31.432Z,74.2
2022-11-16T09:28:48.373Z,74.2
2022-11-16T09:30:05.536Z,74.3
2022-11-16T09:31:23.672Z,74.2
2022-11-16T09:32:39.582Z,74.1
2022-11-16T09:33:56.392Z,74.1
2022-11-16T09:35:13.981Z,74.8
2022-11-16T09:36:31.519Z,75.5
2022-11-16T09:37:48.393Z,76.1
2022-11-16T09:40:22.457Z,77.1
2022-11-16T09:41:39.450Z,77.4
2022-11-16T09:42:56.386Z,77.7
2022-11-16T09:44:13.457Z,78
2022-11-16T09:45:30.408Z,77.7
2022-11-16T09:46:47.411Z,77.4
2022-11-16T09:48:04.436Z,77.4
2022-11-16T09:49:21.394Z,77
2022-11-16T09:50:38.449Z,77.1
2022-11-16T09:51:55.454Z,76.7
2022-11-16T09:53:12.591Z,76.3
2022-11-16T09:54:29.448Z,75.7
2022-11-16T09:55:46.508Z,75.1
2022-11-16T09:57:06.761Z,75.2
2022-11-16T09:58:20.449Z,75.4
2022-11-16T09:59:38.539Z,75.3
2022-11-16T10:00:55.560Z,75
2022-11-16T10:02:12.541Z,75.1
2022-11-16T10:03:29.430Z,75
2022-11-16T10:04:46.455Z,74.7
2022-11-16T10:06:03.541Z,74.8
2022-11-16T10:07:20.555Z,74.9
2022-11-16T10:08:37.454Z,75
2022-11-16T10:09:54.407Z,75
2022-11-16T10:11:11.426Z,74.8
2022-11-16T10:12:28.562Z,74.6
2022-11-16T10:13:45.492Z,74.8
2022-11-16T10:15:02.565Z,74.7
2022-11-16T10:16:19.448Z,74.9
2022-11-16T10:17:36.454Z,74.9
2022-11-16T10:18:53.475Z,75.1
2022-11-16T10:20:10.469Z,75.3
2022-11-16T10:21:27.444Z,75.3
2022-11-16T10:22:44.484Z,75.2
2022-11-16T10:24:01.513Z,75.4
2022-11-16T10:25:18.441Z,75.6
2022-11-16T10:26:35.526Z,75.6
2022-11-16T10:27:52.459Z,75.7
2022-11-16T10:29:09.519Z,75.5
2022-11-16T10:30:26.479Z,75.7
2022-11-16T10:31:43.446Z,76.2
2022-11-16T10:33:00.538Z,76.9
2022-11-16T10:34:17.488Z,77.3
2022-11-16T10:35:34.471Z,77.7
2022-11-16T10:36:51.454Z,78.3
2022-11-16T10:38:08.578Z,78.8
2022-11-16T10:39:25.511Z,79
2022-11-16T10:40:42.491Z,79.1
2022-11-16T10:42:03.295Z,79.1
2022-11-16T10:43:16.508Z,79
2022-11-16T10:44:33.505Z,78.7
2022-11-16T10:45:50.646Z,78.7
2022-11-16T10:47:07.509Z,78.1
2022-11-16T10:48:24.782Z,77.6
2022-11-16T10:49:41.529Z,77
2022-11-16T10:50:58.559Z,76.7
2022-11-16T10:52:15.489Z,76.6
2022-11-16T10:53:32.757Z,76.6
2022-11-16T10:54:49.505Z,76.1
2022-11-16T10:56:06.534Z,75.9
2022-11-16T10:57:23.576Z,75.8
2022-11-16T10:58:40.512Z,76.1
2022-11-16T10:59:57.484Z,75.8
2022-11-16T11:01:14.575Z,75.4
2022-11-16T11:02:31.567Z,75
2022-11-16T11:03:48.551Z,74.9
2022-11-16T11:05:05.556Z,74.7
2022-11-16T11:06:22.583Z,74.3
2022-11-16T11:07:39.704Z,73.7
2022-11-16T11:08:56.640Z,73.2
2022-11-16T11:10:13.544Z,73.4
2022-11-16T11:11:30.600Z,73.6
2022-11-16T11:12:47.515Z,73.7
2022-11-16T11:14:04.651Z,73.6
2022-11-16T11:15:25.775Z,73.4
2022-11-16T11:16:38.551Z,73.3
2022-11-16T11:17:55.571Z,73
2022-11-16T11:19:12.626Z,73.1
2022-11-16T11:20:29.583Z,73.2
2022-11-16T11:21:47.549Z,73.3
2022-11-16T11:23:04.547Z,73.4
2022-11-16T11:25:38.572Z,73.1
2022-11-16T11:26:55.550Z,73.2
2022-11-16T11:28:12.524Z,73.3
2022-11-16T11:29:29.593Z,73.4
2022-11-16T11:30:46.685Z,73.2
2022-11-16T11:32:03.589Z,72.7
2022-11-16T11:33:20.584Z,72.5
2022-11-16T11:34:37.683Z,72.6
2022-11-16T11:35:54.583Z,73.1
2022-11-16T11:37:11.718Z,73.5
2022-11-16T11:38:28.754Z,73.9
2022-11-16T11:39:45.663Z,74
2022-11-16T11:41:02.548Z,73.7
2022-11-16T11:42:19.544Z,73.1
2022-11-16T11:43:37.060Z,72.9
2022-11-16T11:44:53.538Z,72.8
2022-11-16T11:46:10.572Z,72.7
2022-11-16T11:47:57.137Z,72.4
2022-11-16T11:48:44.575Z,72.3
2022-11-16T11:50:01.560Z,72.4
2022-11-16T11:51:18.582Z,72.2
2022-11-16T11:52:35.665Z,72
2022-11-16T11:53:52.609Z,72.1
2022-11-16T11:55:09.821Z,71.8
2022-11-16T11:56:26.671Z,71.7
2022-11-16T11:57:43.591Z,71.7
2022-11-16T11:59:00.612Z,71.9
2022-11-16T12:00:17.741Z,72.2
2022-11-16T12:01:34.641Z,72.1
2022-11-16T12:02:51.755Z,71.7
2022-11-16T12:04:08.684Z,71.6
2022-11-16T12:05:25.773Z,71.8
2022-11-16T12:06:44.263Z,71.8
2022-11-16T12:07:59.581Z,72.1
2022-11-16T12:09:16.685Z,72.2
2022-11-16T12:10:33.704Z,72.4
2022-11-16T12:11:50.771Z,72.4
2022-11-16T12:13:07.587Z,72.4
2022-11-16T12:14:24.664Z,72.2
2022-11-16T12:15:41.612Z,72.7
2022-11-16T12:16:58.675Z,73.3
2022-11-16T12:18:15.598Z,73.9
2022-11-16T12:19:32.645Z,74.5
2022-11-16T12:20:49.784Z,75.1
2022-11-16T12:22:06.779Z,75.3
2022-11-16T12:23:23.679Z,75.5
2022-11-16T12:24:40.670Z,76
2022-11-16T12:25:57.699Z,75.8
2022-11-16T12:27:14.642Z,75.6
2022-11-16T12:28:31.647Z,75.4
2022-11-16T12:29:48.613Z,74.9
2022-11-16T12:31:05.644Z,75
2022-11-16T12:32:22.604Z,75
2022-11-16T12:33:39.633Z,74.8
2022-11-16T12:34:56.613Z,74.8
2022-11-16T12:36:13.666Z,74.6
2022-11-16T12:37:30.658Z,74
2022-11-16T12:38:47.618Z,73.8
2022-11-16T12:40:04.683Z,73.6
2022-11-16T12:41:21.675Z,73.4
2022-11-16T12:42:38.806Z,73.4
2022-11-16T12:43:55.639Z,73.1
2022-11-16T12:45:12.657Z,72.9
2022-11-16T12:46:29.721Z,72.8
2022-11-16T12:47:46.692Z,72.7
2022-11-16T12:49:03.735Z,72.6
2022-11-16T12:50:20.671Z,72.7
2022-11-16T12:51:37.696Z,73
2022-11-16T12:52:54.701Z,73.2
2022-11-16T12:54:11.646Z,73.1
2022-11-16T12:55:28.818Z,73
2022-11-16T12:56:48.791Z,73.4
2022-11-16T12:58:02.720Z,73.6
2022-11-16T12:59:19.654Z,73.7
2022-11-16T13:00:36.849Z,73.5
2022-11-16T13:01:57.640Z,73.2
2022-11-16T13:03:10.653Z,73.1
2022-11-16T13:04:27.680Z,73.1
2022-11-16T13:05:44.689Z,73
2022-11-16T13:07:04.240Z,73.1
2022-11-16T13:08:18.674Z,73.5
2022-11-16T13:09:35.671Z,73.9
2022-11-16T13:10:52.714Z,74.5
2022-11-16T13:12:09.847Z,75.1
2022-11-16T13:13:36.180Z,75.5
2022-11-16T13:14:43.670Z,76.1
2022-11-16T13:16:00.688Z,76.8
2022-11-16T13:17:17.693Z,77.2
2022-11-16T13:18:34.697Z,77.4
2022-11-16T13:19:51.674Z,76.9
2022-11-16T13:21:08.783Z,76.4
2022-11-16T13:22:25.767Z,75.9
2022-11-16T13:23:42.707Z,75.7
2022-11-16T13:24:59.696Z,75.3
2022-11-16T13:26:16.765Z,74.9
2022-11-16T13:27:33.738Z,74.6
2022-11-16T13:28:50.831Z,74.2
2022-11-16T13:30:07.769Z,74.4
2022-11-16T13:31:24.728Z,74.1
2022-11-16T13:32:41.718Z,74
2022-11-16T13:33:58.733Z,73.8
2022-11-16T13:35:15.735Z,73.8
2022-11-16T13:36:32.683Z,73.9
2022-11-16T13:37:49.710Z,73.8
2022-11-16T13:39:06.758Z,73.9
2022-11-16T13:40:23.741Z,74.1
2022-11-16T13:41:40.721Z,73.8
2022-11-16T13:42:57.880Z,73.9
2022-11-16T13:44:14.700Z,74.4
2022-11-16T13:45:31.775Z,74.6
2022-11-16T13:46:56.847Z,74.5
2022-11-16T13:48:05.716Z,74.5
2022-11-16T13:49:22.771Z,74.8
2022-11-16T13:50:39.806Z,74.8
2022-11-16T13:51:56.731Z,75
2022-11-16T13:54:44.972Z,75.4
2022-11-16T13:55:47.786Z,75.1
2022-11-16T13:57:04.816Z,74.8
2022-11-16T13:58:22.290Z,75
2022-11-16T13:59:38.738Z,75.7
2022-11-16T14:00:55.840Z,76.3
2022-11-16T14:02:12.780Z,76.7
2022-11-16T14:03:29.740Z,77
2022-11-16T14:04:46.760Z,77.4
2022-11-16T14:06:03.772Z,77.4
2022-11-16T14:07:20.796Z,76.7
2022-11-16T14:08:37.747Z,76.5
2022-11-16T14:09:54.791Z,76.4
2022-11-16T14:11:11.749Z,76
2022-11-16T14:12:28.750Z,75.5
2022-11-16T14:13:45.912Z,75.4
2022-11-16T14:15:03.871Z,75.5
2022-11-16T14:16:19.803Z,76
2022-11-16T14:17:36.742Z,75.9
2022-11-16T14:18:53.804Z,75.7
2022-11-16T14:20:10.918Z,75.5
2022-11-16T14:21:27.923Z,75.2
2022-11-16T14:22:44.803Z,74.7
2022-11-16T14:24:01.796Z,74.5
2022-11-16T14:25:18.996Z,74.5
2022-11-16T14:26:35.807Z,74.4
2022-11-16T14:27:52.772Z,74.2
2022-11-16T14:29:09.818Z,74
2022-11-16T14:30:27.019Z,74.3
2022-11-16T14:31:43.928Z,74.6
2022-11-16T14:33:00.828Z,74.5
2022-11-16T14:34:17.789Z,74.5
2022-11-16T14:35:34.839Z,74.4
2022-11-16T14:36:51.834Z,74.3
2022-11-16T14:38:08.801Z,73.9
2022-11-16T14:39:25.848Z,73.8
2022-11-16T14:40:42.789Z,74.2
2022-11-16T14:41:59.824Z,74.3
2022-11-16T14:43:17.508Z,74.5
2022-11-16T14:44:33.950Z,74.4
2022-11-16T14:45:50.820Z,74.4
2022-11-16T14:47:07.841Z,74.6
2022-11-16T14:48:24.837Z,74.5
2022-11-16T14:49:41.802Z,74.4
2022-11-16T14:50:58.854Z,75
2022-11-16T14:52:15.832Z,75.4
2022-11-16T14:53:33.049Z,76.2
2022-11-16T14:54:49.879Z,76.7
2022-11-16T14:56:06.939Z,77.2
2022-11-16T14:57:24.071Z,77.4
2022-11-16T14:58:42.164Z,77.5
2022-11-16T15:00:00.387Z,77.6
2022-11-16T15:01:17.282Z,77.5
2022-11-16T15:02:34.311Z,77.1
2022-11-16T15:03:52.561Z,76.9
2022-11-16T15:05:08.878Z,76.8
2022-11-16T15:06:25.873Z,76.3
2022-11-16T15:07:43.114Z,76
2022-11-16T15:08:59.830Z,76.3
2022-11-16T15:10:17.019Z,76.3
2022-11-16T15:11:33.854Z,76.2
2022-11-16T15:12:50.889Z,76.1
2022-11-16T15:14:07.827Z,76
2022-11-16T15:15:24.923Z,76
2022-11-16T15:16:41.844Z,76.1
2022-11-16T15:17:58.877Z,76.4
2022-11-16T15:19:15.867Z,76.2
2022-11-16T15:20:33.040Z,76
2022-11-16T15:21:49.880Z,76
2022-11-16T15:23:06.906Z,75.8
2022-11-16T15:24:30.290Z,75.8
2022-11-16T15:25:40.879Z,75.9
2022-11-16T15:26:57.854Z,76.1
2022-11-16T15:28:14.963Z,75.9
2022-11-16T15:29:31.858Z,76.2
2022-11-16T15:30:49.024Z,76
2022-11-16T15:32:05.860Z,75.7
2022-11-16T15:33:22.924Z,75.2
2022-11-16T15:34:39.984Z,75.2
2022-11-16T15:35:56.905Z,75.1
2022-11-16T15:37:13.875Z,75.6
2022-11-16T15:38:30.890Z,76.3
2022-11-16T15:39:47.963Z,76.9
2022-11-16T15:41:04.883Z,77.6
2022-11-16T15:42:21.907Z,77.9
2022-11-16T15:43:45.347Z,78.4
2022-11-16T15:44:55.908Z,78.4
2022-11-16T15:46:12.995Z,78.1
2022-11-16T15:47:29.869Z,77.6
2022-11-16T15:48:46.948Z,77.3
2022-11-16T15:50:03.984Z,77.3
2022-11-16T15:51:20.923Z,77.3
2022-11-16T15:52:37.874Z,77.2
2022-11-16T15:53:54.912Z,76.9
2022-11-16T15:55:11.975Z,76.8
2022-11-16T15:56:28.913Z,76.5
2022-11-16T15:57:46.691Z,76.2
2022-11-16T15:59:02.891Z,76
2022-11-16T16:00:19.913Z,75.8
2022-11-16T16:01:37.105Z,75.7
2022-11-16T16:02:53.968Z,75.5
2022-11-16T16:04:10.897Z,75.3
2022-11-16T16:05:27.903Z,75.2
2022-11-16T16:06:44.924Z,75.2
2022-11-16T16:08:02.095Z,75.1
2022-11-16T16:09:18.912Z,75
2022-11-16T16:10:35.923Z,75.1
2022-11-16T16:11:52.969Z,75
2022-11-16T16:13:09.912Z,74.9
2022-11-16T16:14:27.189Z,74.8
2022-11-16T16:15:44.134Z,74.6
2022-11-16T16:17:01.285Z,74.4
2022-11-16T16:18:17.936Z,74.3
2022-11-16T16:19:34.951Z,74.1
2022-11-16T16:20:52.064Z,74.1
2022-11-16T16:22:08.946Z,74.5
2022-11-16T16:23:25.927Z,75.4
2022-11-16T16:24:43.015Z,75.8
2022-11-16T16:25:59.977Z,76.5
2022-11-16T16:27:16.958Z,77
2022-11-16T16:28:34.128Z,77.6
2022-11-16T16:29:50.955Z,78.1
2022-11-16T16:31:07.993Z,78.6
2022-11-16T16:32:25.319Z,78.9
2022-11-16T16:33:42.214Z,78.6
2022-11-16T16:34:59.011Z,78.2
2022-11-16T16:36:15.968Z,78
2022-11-16T16:37:32.979Z,77.5
2022-11-16T16:38:50.034Z,77.3
2022-11-16T16:40:07.323Z,77.2
2022-11-16T16:41:24.801Z,77.4
2022-11-16T16:42:40.992Z,77.3
2022-11-16T16:43:58.274Z,77.1
2022-11-16T16:45:14.979Z,76.6
2022-11-16T16:46:32.107Z,76.5
2022-11-16T16:47:48.996Z,76.6
2022-11-16T16:49:06.004Z,76.6
2022-11-16T16:50:23.129Z,76.6
2022-11-16T16:51:40.003Z,76.6
2022-11-16T16:52:57.093Z,76.8
2022-11-16T16:54:14.025Z,77.1
2022-11-16T16:55:35.821Z,77.5
2022-11-16T16:56:48.004Z,77.6
2022-11-16T16:58:05.123Z,77.6
2022-11-16T16:59:22.102Z,77.8
2022-11-16T17:00:39.154Z,78.1
2022-11-16T17:01:56.044Z,78
2022-11-16T17:03:13.171Z,77.9
2022-11-16T17:04:30.004Z,77.9
2022-11-16T17:05:47.094Z,77.4
2022-11-16T17:07:04.083Z,77.5
2022-11-16T17:08:21.079Z,77.7
2022-11-16T17:09:38.190Z,77.6
2022-11-16T17:10:55.030Z,77.2
2022-11-16T17:12:12.048Z,77.2
2022-11-16T17:13:29.036Z,77
2022-11-16T17:14:46.066Z,76.6
2022-11-16T17:16:03.121Z,76.2